Time;durP1;ratioP1;P1;durP2;ratioP2;P2;SDS_P1;SDS_P2;PMS_P1;PMS_P2;Temp;Humidity;BMP_temperature;BMP_pressure;BME280_temperature;BME280_humidity;BME280_pressure;Samples;Min_cycle;Max_cycle;Signal;HPM_P1;HPM_P2
2023/05/10 00:02:25;;;;;;;39.05;29.05;;;15.10;99.90;;;15.39;98.46;100725.22;5114691;28;20423;-73
2023/05/10 00:04:53;;;;;;;38.53;29.80;;;15.10;99.90;;;15.39;98.24;100721.66;5114450;28;20093;-74
2023/05/10 00:07:22;;;;;;;26.17;21.67;;;15.10;99.90;;;15.35;98.15;100725.31;5114365;28;20036;-72
2023/05/10 00:09:50;;;;;;;33.67;28.25;;;15.10;99.90;;;15.32;98.23;100717.44;5114676;28;20105;-73
2023/05/10 00:12:19;;;;;;;35.45;26.75;;;15.00;99.90;;;15.24;98.13;100706.97;5114256;28;20130;-73
2023/05/10 00:14:49;;;;;;;26.90;19.30;;;15.00;99.90;;;15.15;97.89;100711.66;5114282;28;20096;-73
2023/05/10 00:17:17;;;;;;;19.67;16.87;;;14.90;99.90;;;15.07;98.00;100719.84;5114476;28;20039;-73
2023/05/10 00:19:45;;;;;;;34.85;27.17;;;14.80;99.90;;;15.14;98.24;100707.22;5110024;28;20085;-72
2023/05/10 00:22:13;;;;;;;29.88;19.95;;;14.80;99.90;;;15.19;99.03;100713.34;5110933;28;20050;-73
2023/05/10 00:24:42;;;;;;;28.92;24.10;;;14.80;99.90;;;15.17;98.30;100713.38;5114589;28;20116;-73
2023/05/10 00:27:10;;;;;;;33.78;24.20;;;14.90;99.90;;;15.15;98.99;100712.53;5113961;28;20042;-73
2023/05/10 00:29:39;;;;;;;40.83;26.88;;;14.80;99.90;;;15.11;99.35;100702.00;5087769;28;20047;-72
2023/05/10 00:32:08;;;;;;;33.72;24.55;;;14.80;99.90;;;15.14;99.54;100709.91;5113797;28;20126;-72
2023/05/10 00:34:37;;;;;;;27.80;20.47;;;14.80;99.90;;;15.02;99.05;100681.78;5113952;28;20067;-73
2023/05/10 00:37:06;;;;;;;32.58;25.52;;;14.80;99.90;;;15.19;98.84;100718.66;5095496;28;20070;-73
2023/05/10 00:39:34;;;;;;;36.95;27.58;;;14.90;99.90;;;15.15;99.43;100730.31;5095779;28;20571;-72
2023/05/10 00:42:04;;;;;;;38.25;28.33;;;14.90;99.90;;;15.21;100.00;100712.34;5113936;28;20071;-73
2023/05/10 00:44:33;;;;;;;33.65;26.70;;;14.90;99.90;;;15.24;100.00;100720.28;5075328;28;20056;-73
2023/05/10 00:47:01;;;;;;;35.45;27.02;;;14.90;99.90;;;15.20;100.00;100725.72;5113679;28;20047;-73
2023/05/10 00:49:31;;;;;;;38.78;27.70;;;14.90;99.90;;;15.11;100.00;100728.63;5087474;28;20047;-73
2023/05/10 00:52:01;;;;;;;46.67;29.23;;;14.80;99.90;;;14.92;100.00;100706.03;5113518;28;20039;-73
2023/05/10 00:54:31;;;;;;;50.40;31.17;;;14.70;99.90;;;15.07;100.00;100740.28;5113612;28;20447;-73
2023/05/10 00:56:59;;;;;;;54.25;33.08;;;14.70;99.90;;;15.06;100.00;100730.56;5113382;28;20126;-73
2023/05/10 00:59:28;;;;;;;62.33;34.42;;;14.70;99.90;;;15.07;100.00;100730.50;5095277;28;20043;-73
2023/05/10 01:01:56;;;;;;;59.67;33.75;;;14.70;99.90;;;15.16;100.00;100737.38;5092077;28;20055;-73
2023/05/10 01:04:26;;;;;;;64.60;34.78;;;14.80;99.90;;;15.09;100.00;100718.03;5095358;28;20051;-72
2023/05/10 01:06:56;;;;;;;63.42;32.97;;;14.90;99.90;;;15.24;100.00;100740.72;5109669;28;20043;-72
2023/05/10 01:09:26;;;;;;;56.40;31.95;;;14.90;99.90;;;15.19;100.00;100737.31;5113329;28;20051;-73
2023/05/10 01:11:55;;;;;;;51.75;32.08;;;14.90;99.90;;;15.19;100.00;100739.97;5086735;28;20138;-73
2023/05/10 01:14:24;;;;;;;48.13;29.88;;;14.90;99.90;;;15.25;100.00;100746.00;5113482;28;20063;-74
2023/05/10 01:16:54;;;;;;;46.08;30.33;;;14.90;99.90;;;15.32;100.00;100746.75;5113429;28;20105;-72
2023/05/10 01:19:25;;;;;;;50.08;28.73;;;15.00;99.90;;;15.37;100.00;100748.38;5113239;28;20420;-72
2023/05/10 01:22:07;;;;;;;43.35;28.15;;;15.00;99.90;;;15.42;100.00;100748.28;5083188;28;20599;-74
2023/05/10 01:25:19;;;;;;;49.70;29.45;;;15.10;99.90;;;15.46;100.00;100751.75;5085085;28;20101;-72
2023/05/10 01:28:18;;;;;;;47.72;28.40;;;15.10;99.90;;;15.50;100.00;100750.75;5109683;28;20036;-72
2023/05/10 01:31:09;;;;;;;47.58;29.23;;;15.10;99.90;;;15.51;100.00;100760.47;5109975;28;20096;-72
2023/05/10 01:33:48;;;;;;;50.55;28.77;;;15.20;99.90;;;15.55;100.00;100764.81;5088549;28;20044;-72
2023/05/10 01:36:26;;;;;;;52.53;29.60;;;15.20;99.90;;;15.55;100.00;100764.81;5095004;28;20047;-73
2023/05/10 01:39:03;;;;;;;51.25;28.88;;;15.20;99.90;;;15.53;100.00;100764.00;5075018;28;20047;-72
2023/05/10 01:41:52;;;;;;;51.78;27.75;;;15.20;99.90;;;15.59;100.00;100770.03;5084333;28;20082;-72
2023/05/10 01:44:32;;;;;;;51.88;28.25;;;15.30;99.90;;;15.59;100.00;100770.03;5109902;28;20047;-73
2023/05/10 01:47:08;;;;;;;51.40;29.30;;;15.30;99.90;;;15.57;100.00;100771.00;5112911;28;20420;-72
2023/05/10 01:49:43;;;;;;;54.40;31.00;;;15.30;99.90;;;15.66;100.00;100773.44;5109467;28;20114;-73
2023/05/10 01:52:15;;;;;;;46.55;29.77;;;15.30;99.90;;;15.74;100.00;100779.41;5110095;28;20400;-73
2023/05/10 01:54:53;;;;;;;45.35;29.98;;;15.40;99.90;;;15.60;100.00;100753.13;5112765;28;20404;-72
2023/05/10 01:57:27;;;;;;;43.10;28.85;;;15.40;99.90;;;15.77;100.00;100779.34;5074702;28;20048;-72
2023/05/10 01:59:57;;;;;;;50.88;29.73;;;15.50;99.90;;;15.79;100.00;100781.06;5109844;28;20396;-73
2023/05/10 02:02:26;;;;;;;44.60;28.80;;;15.40;99.90;;;15.84;100.00;100775.59;5112735;28;20092;-73
2023/05/10 02:04:58;;;;;;;46.85;28.70;;;15.50;99.90;;;15.84;100.00;100771.13;5086533;28;20142;-72
2023/05/10 02:07:29;;;;;;;45.58;28.55;;;15.60;99.90;;;15.86;100.00;100774.63;5094806;28;20510;-73
2023/05/10 02:09:59;;;;;;;42.63;29.80;;;15.60;99.90;;;15.89;100.00;100779.03;5114227;28;20059;-74
2023/05/10 02:12:29;;;;;;;50.38;29.60;;;15.60;99.90;;;15.90;100.00;100772.75;5091794;28;20156;-72
2023/05/10 02:15:00;;;;;;;44.33;29.98;;;15.60;99.90;;;15.92;100.00;100785.16;5116640;28;20095;-73
2023/05/10 02:17:31;;;;;;;48.28;30.73;;;15.60;99.90;;;15.97;100.00;100782.31;5098545;28;20666;-73
2023/05/10 02:20:03;;;;;;;46.15;31.25;;;15.70;99.90;;;15.90;100.00;100775.44;5098626;28;20496;-73
2023/05/10 02:22:33;;;;;;;49.35;30.50;;;15.70;99.90;;;15.96;100.00;100781.47;5116730;28;20050;-72
2023/05/10 02:25:04;;;;;;;49.40;29.77;;;15.70;99.90;;;15.92;100.00;100779.81;5116410;28;20065;-72
2023/05/10 02:27:33;;;;;;;43.38;29.58;;;15.70;99.90;;;15.92;100.00;100790.47;5113204;28;20136;-72
2023/05/10 02:30:02;;;;;;;52.92;32.63;;;15.70;99.90;;;15.85;100.00;100852.03;5116441;28;20075;-72
2023/05/10 02:32:32;;;;;;;45.72;30.27;;;15.70;99.90;;;15.92;100.00;100795.81;5116560;28;20039;-73
2023/05/10 02:35:03;;;;;;;45.13;31.75;;;15.60;99.90;;;15.82;100.00;100788.09;5116254;28;20044;-73
2023/05/10 02:37:33;;;;;;;38.75;29.25;;;15.50;99.90;;;15.55;100.00;100775.50;5089740;28;20051;-73
2023/05/10 02:40:04;;;;;;;46.90;30.45;;;15.40;99.90;;;15.59;100.00;100793.16;5098021;28;20098;-72
2023/05/10 02:42:37;;;;;;;44.70;32.35;;;15.40;99.90;;;15.55;100.00;100794.16;5112496;28;20051;-73
2023/05/10 02:45:12;;;;;;;43.42;34.67;;;15.30;99.90;;;15.41;100.00;100802.47;5116351;28;20051;-73
2023/05/10 02:47:43;;;;;;;41.33;31.50;;;15.20;99.90;;;15.28;100.00;100801.91;5089519;28;20076;-72
2023/05/10 02:50:13;;;;;;;39.17;32.10;;;15.00;99.90;;;15.29;100.00;100797.47;5097933;28;20138;-73
2023/05/10 02:52:47;;;;;;;40.38;32.63;;;15.00;99.90;;;15.25;100.00;100801.13;5115850;28;20071;-72
2023/05/10 02:55:20;;;;;;;41.55;32.80;;;14.90;99.90;;;15.37;100.00;100803.47;5091888;28;20052;-73
2023/05/10 02:57:57;;;;;;;45.75;34.65;;;15.00;99.90;;;15.32;100.00;100798.25;5116142;28;20134;-72
2023/05/10 03:00:25;;;;;;;43.22;34.97;;;15.00;99.90;;;15.29;100.00;100802.78;5116038;28;20039;-72
2023/05/10 03:02:54;;;;;;;49.60;37.70;;;15.00;99.90;;;15.31;100.00;100791.16;5094194;28;20044;-72
2023/05/10 03:05:24;;;;;;;48.42;38.58;;;15.10;99.90;;;15.32;100.00;100805.38;5111635;28;20043;-73
2023/05/10 03:07:53;;;;;;;47.78;36.55;;;15.00;99.90;;;15.39;100.00;100810.50;5097316;28;20071;-73
2023/05/10 03:10:28;;;;;;;46.17;38.03;;;15.10;99.90;;;15.45;100.00;100806.00;5089373;28;20055;-73
2023/05/10 03:13:15;;;;;;;46.35;36.30;;;15.10;99.90;;;15.46;100.00;100816.59;5097549;28;20472;-72
2023/05/10 03:15:58;;;;;;;49.90;36.63;;;15.20;99.90;;;15.30;100.00;100810.75;5113247;28;20445;-72
2023/05/10 03:18:34;;;;;;;46.35;34.25;;;15.10;99.90;;;15.20;100.00;100809.22;5093974;28;20403;-72
2023/05/10 03:21:10;;;;;;;50.47;36.08;;;15.00;99.90;;;14.99;100.00;100804.41;5086698;28;20059;-72
2023/05/10 03:23:45;;;;;;;51.28;35.50;;;14.80;99.90;;;14.76;100.00;100790.75;5089523;28;20416;-72
2023/05/10 03:26:25;;;;;;;53.95;33.67;;;14.60;99.90;;;14.78;100.00;100804.91;5090063;28;20448;-72
2023/05/10 03:28:59;;;;;;;53.55;31.88;;;14.60;99.90;;;14.79;100.00;100806.63;5079317;28;20059;-73
2023/05/10 03:31:28;;;;;;;51.03;31.60;;;14.50;99.90;;;14.83;100.00;100807.44;5097006;28;20039;-72
2023/05/10 03:33:57;;;;;;;49.45;29.73;;;14.60;99.90;;;14.76;100.00;100804.06;5085287;28;20035;-72
2023/05/10 03:36:28;;;;;;;47.25;27.30;;;14.50;99.90;;;14.76;100.00;100806.72;5085225;28;20097;-72
2023/05/10 03:38:57;;;;;;;47.03;27.55;;;14.50;99.90;;;14.63;100.00;100791.06;5088929;28;20054;-72
2023/05/10 03:41:26;;;;;;;52.63;27.30;;;14.50;99.90;;;14.80;100.00;100818.16;5096850;28;20051;-72
2023/05/10 03:43:55;;;;;;;55.00;28.60;;;14.50;99.90;;;14.68;100.00;100814.00;5096827;28;20051;-72
2023/05/10 03:46:23;;;;;;;43.88;24.83;;;14.40;99.90;;;14.53;100.00;100810.78;5115089;28;20055;-72
2023/05/10 03:48:51;;;;;;;45.65;26.73;;;14.30;99.90;;;14.61;100.00;100816.81;5088663;28;20047;-73
2023/05/10 03:51:20;;;;;;;47.92;28.95;;;14.30;99.90;;;14.35;100.00;100793.41;5114785;28;20042;-73
2023/05/10 03:53:50;;;;;;;46.88;28.80;;;14.30;99.90;;;14.54;100.00;100809.91;5088456;28;20044;-72
2023/05/10 03:56:20;;;;;;;46.92;28.55;;;14.20;99.90;;;14.31;100.00;100794.38;5093335;28;20494;-72
2023/05/10 03:58:48;;;;;;;52.23;31.73;;;14.20;99.90;;;14.38;100.00;100812.84;5084822;28;20048;-72
2023/05/10 04:01:17;;;;;;;52.92;31.20;;;14.20;99.90;;;14.27;100.00;100821.94;5096616;28;20367;-72
2023/05/10 04:03:45;;;;;;;57.45;30.10;;;14.00;99.90;;;13.52;100.00;100716.19;5114543;28;20042;-72
2023/05/10 04:06:14;;;;;;;57.20;28.70;;;13.90;99.90;;;14.28;100.00;100829.94;5096331;28;20105;-72
2023/05/10 04:08:42;;;;;;;57.75;29.25;;;14.00;99.90;;;14.24;100.00;100837.97;5114363;28;20383;-72
2023/05/10 04:11:13;;;;;;;55.13;28.20;;;14.00;99.90;;;14.33;100.00;100838.69;5114256;28;20063;-72
2023/05/10 04:13:42;;;;;;;48.30;25.67;;;14.10;99.90;;;14.29;100.00;100834.34;5114219;28;20042;-73
2023/05/10 04:16:11;;;;;;;40.22;24.33;;;14.10;99.90;;;14.18;100.00;100824.78;5092835;28;20102;-72
2023/05/10 04:18:39;;;;;;;38.08;24.30;;;14.00;99.90;;;14.05;100.00;100831.25;5114508;28;20074;-72
2023/05/10 04:21:13;;;;;;;33.25;22.80;;;13.90;99.90;;;13.96;100.00;100831.41;5110243;28;20445;-73
2023/05/10 04:23:41;;;;;;;39.25;25.40;;;13.80;99.90;;;13.89;100.00;100840.41;5114418;28;20093;-72
2023/05/10 04:26:11;;;;;;;43.35;26.05;;;13.70;99.90;;;14.07;100.00;100840.94;5114034;28;20039;-72
2023/05/10 04:28:40;;;;;;;40.07;25.53;;;13.80;99.90;;;13.87;100.00;100831.59;5114084;28;20096;-72
2023/05/10 04:31:12;;;;;;;43.45;25.73;;;13.60;99.90;;;14.18;100.00;100836.31;5114315;28;20277;-72
2023/05/10 04:33:40;;;;;;;47.80;27.20;;;13.80;99.90;;;14.09;100.00;100835.63;5113354;28;20108;-72
2023/05/10 04:36:09;;;;;;;42.97;25.52;;;13.80;99.90;;;14.12;100.00;100831.09;5113898;28;20048;-72
2023/05/10 04:38:38;;;;;;;36.53;24.23;;;13.90;99.90;;;14.13;100.00;100840.81;5109976;28;20044;-72
2023/05/10 04:41:07;;;;;;;43.25;24.08;;;13.80;99.90;;;14.23;100.00;100849.50;5113784;28;20039;-72
2023/05/10 04:43:38;;;;;;;30.17;20.80;;;13.90;99.90;;;14.29;100.00;100839.66;5113686;28;20108;-72
2023/05/10 04:46:07;;;;;;;20.55;15.25;;;14.00;99.90;;;14.06;100.00;100840.97;5113681;28;20070;-72
2023/05/10 04:48:36;;;;;;;16.48;13.00;;;13.90;99.90;;;14.13;100.00;100846.16;5113703;28;20046;-72
2023/05/10 04:51:06;;;;;;;12.40;11.07;;;13.80;99.90;;;14.19;100.00;100853.13;5113647;28;20101;-72
2023/05/10 04:53:34;;;;;;;10.80;9.52;;;13.90;99.90;;;14.19;100.00;100853.13;5113608;28;20126;-74
2023/05/10 04:56:03;;;;;;;9.52;8.63;;;13.90;99.90;;;14.10;100.00;100859.53;5113733;28;20097;-72
2023/05/10 04:58:31;;;;;;;8.88;8.10;;;13.80;99.90;;;13.83;100.00;100857.38;5109423;28;20062;-73
2023/05/10 05:01:08;;;;;;;9.93;9.02;;;13.60;99.90;;;13.87;100.00;100859.06;5113328;28;20071;-72
2023/05/10 05:03:37;;;;;;;9.82;8.93;;;13.60;99.90;;;13.99;100.00;100860.63;5113253;28;20040;-73
2023/05/10 05:06:06;;;;;;;11.70;10.50;;;13.70;99.90;;;13.87;100.00;100858.19;5113205;28;20487;-73
2023/05/10 05:08:34;;;;;;;15.07;11.95;;;13.60;99.90;;;13.87;100.00;100852.88;5113144;28;20138;-72
2023/05/10 05:11:02;;;;;;;16.50;13.15;;;13.60;99.90;;;13.83;100.00;100862.69;5113461;28;20058;-72
2023/05/10 05:13:31;;;;;;;15.45;13.32;;;13.60;99.90;;;13.85;100.00;100860.00;5113443;28;20043;-73
2023/05/10 05:16:02;;;;;;;15.05;13.40;;;13.60;99.90;;;13.92;100.00;100856.31;5109161;28;20043;-73
2023/05/10 05:18:32;;;;;;;15.40;13.77;;;13.70;99.90;;;14.05;100.00;100871.16;5109907;28;20050;-72
2023/05/10 05:21:00;;;;;;;16.33;14.30;;;13.80;99.90;;;14.11;100.00;100873.69;5113127;28;20039;-72
2023/05/10 05:23:29;;;;;;;21.25;16.33;;;13.90;99.90;;;14.06;100.00;100872.88;5113078;28;20036;-72
2023/05/10 05:25:57;;;;;;;25.90;18.17;;;13.80;99.90;;;14.12;100.00;100876.31;5095205;28;20142;-73
2023/05/10 05:28:25;;;;;;;26.63;17.92;;;13.90;99.90;;;14.15;100.00;100880.72;5113571;28;20043;-73
2023/05/10 05:30:54;;;;;;;30.13;19.58;;;13.90;99.90;;;14.22;100.00;100882.34;5095345;28;20070;-73
2023/05/10 05:33:22;;;;;;;27.20;19.70;;;13.90;99.90;;;14.24;100.00;100884.09;5112892;28;20485;-73
2023/05/10 05:35:52;;;;;;;31.30;20.73;;;13.90;99.90;;;14.38;100.00;100882.03;5112905;28;20066;-73
2023/05/10 05:38:20;;;;;;;33.92;21.88;;;14.00;99.90;;;14.41;100.00;100889.09;5109270;28;20075;-73
2023/05/10 05:40:48;;;;;;;29.02;20.58;;;14.20;99.90;;;14.45;100.00;100888.13;5112922;28;20388;-73
2023/05/10 05:43:17;;;;;;;26.92;21.02;;;14.20;99.90;;;14.50;100.00;100885.41;5112859;28;20093;-73
2023/05/10 05:45:45;;;;;;;30.83;22.02;;;14.20;99.90;;;14.52;100.00;100884.44;5115864;28;20046;-73
2023/05/10 05:48:14;;;;;;;28.00;19.77;;;14.30;99.90;;;14.68;100.00;100893.88;5117673;28;20124;-74
2023/05/10 05:50:42;;;;;;;26.55;18.88;;;14.40;99.90;;;14.73;100.00;100897.28;5116808;28;20039;-73
2023/05/10 05:53:12;;;;;;;24.75;16.50;;;14.40;99.90;;;14.65;100.00;100901.94;5117189;28;20050;-73
2023/05/10 05:55:40;;;;;;;20.03;14.70;;;14.40;99.90;;;14.57;100.00;100890.56;5116904;28;20097;-72
2023/05/10 05:58:08;;;;;;;17.67;13.32;;;14.40;99.90;;;14.61;100.00;100897.56;5117491;28;20043;-72
2023/05/10 06:00:37;;;;;;;18.63;13.52;;;14.40;99.90;;;14.72;100.00;100900.88;5098697;28;20075;-72
2023/05/10 06:03:06;;;;;;;16.63;14.07;;;14.40;99.90;;;14.84;100.00;100903.28;5112699;28;20046;-73
2023/05/10 06:05:34;;;;;;;19.20;15.05;;;14.50;99.90;;;14.70;100.00;100891.16;5113107;28;20484;-73
2023/05/10 06:08:03;;;;;;;21.75;14.70;;;14.50;99.90;;;14.78;100.00;100898.09;5116449;28;20036;-72
2023/05/10 06:10:32;;;;;;;22.88;15.63;;;14.50;99.90;;;14.86;100.00;100903.25;5090589;28;20162;-73
2023/05/10 06:13:01;;;;;;;23.43;15.53;;;14.50;99.90;;;14.85;100.00;100901.50;5116543;28;20481;-73
2023/05/10 06:15:29;;;;;;;23.42;17.30;;;14.60;99.90;;;15.12;100.00;100901.78;5116540;28;20459;-73
2023/05/10 06:17:58;;;;;;;19.13;15.15;;;14.80;99.90;;;15.32;100.00;100899.53;5116894;28;20063;-72
2023/05/10 06:20:26;;;;;;;23.60;17.50;;;15.00;99.90;;;15.38;100.00;100907.41;5116748;28;20039;-73
2023/05/10 06:22:55;;;;;;;22.92;15.23;;;15.10;99.90;;;15.22;100.00;100910.44;5116378;28;20496;-73
2023/05/10 06:25:23;;;;;;;20.83;14.93;;;15.00;99.90;;;15.13;100.00;100911.53;5116350;28;20048;-72
2023/05/10 06:27:56;;;;;;;19.35;13.27;;;14.90;99.90;;;15.03;100.00;100912.63;5112194;28;20066;-73
2023/05/10 06:30:28;;;;;;;21.73;14.43;;;14.80;99.90;;;15.15;100.00;100911.50;5113528;28;20043;-73
2023/05/10 06:32:57;;;;;;;20.15;14.23;;;14.80;99.90;;;15.28;100.00;100918.28;5116576;28;20044;-73
2023/05/10 06:35:25;;;;;;;18.35;14.13;;;14.90;99.90;;;15.23;100.00;100920.19;5116080;28;20122;-73
2023/05/10 06:37:54;;;;;;;18.10;14.70;;;15.00;99.90;;;15.26;100.00;100915.66;5116353;28;20373;-73
2023/05/10 06:40:22;;;;;;;19.33;13.98;;;14.90;99.90;;;15.36;100.00;100922.53;5116023;28;20040;-73
2023/05/10 06:42:52;;;;;;;19.85;14.77;;;15.10;99.90;;;15.35;100.00;100927.88;5116370;28;20074;-73
2023/05/10 06:45:21;;;;;;;20.92;14.68;;;15.10;99.90;;;15.59;100.00;100926.47;5112165;28;20071;-72
2023/05/10 06:47:49;;;;;;;19.30;14.65;;;15.30;99.90;;;15.55;100.00;100935.47;5094358;28;20043;-73
2023/05/10 06:50:17;;;;;;;19.33;14.13;;;15.20;99.90;;;15.64;100.00;100925.44;5115916;28;20417;-73
2023/05/10 06:52:46;;;;;;;14.63;11.60;;;15.30;99.90;;;15.71;100.00;100932.41;5115888;28;20518;-73
2023/05/10 06:55:14;;;;;;;14.45;10.75;;;15.40;99.90;;;15.65;100.00;100913.88;5115536;28;20036;-73
2023/05/10 06:57:43;;;;;;;15.40;10.90;;;15.40;99.90;;;15.86;100.00;100936.47;5115775;28;20043;-74
2023/05/10 07:00:14;;;;;;;12.27;9.95;;;15.50;99.90;;;15.91;100.00;100937.25;5097764;28;20404;-73
2023/05/10 07:02:43;;;;;;;13.90;10.48;;;15.60;99.90;;;15.72;100.00;100935.94;5097669;28;20047;-73
2023/05/10 07:05:12;;;;;;;17.10;11.02;;;15.50;99.90;;;15.97;100.00;100942.41;5115531;28;20039;-73
2023/05/10 07:07:40;;;;;;;12.85;9.25;;;15.60;99.90;;;16.07;100.00;100942.16;5085397;28;20097;-74
2023/05/10 07:10:10;;;;;;;16.48;11.13;;;15.80;99.90;;;15.94;100.00;100942.50;5112037;28;20116;-74
2023/05/10 07:12:39;;;;;;;15.20;10.97;;;15.70;99.90;;;16.02;100.00;100949.41;5115691;28;20040;-73
2023/05/10 07:15:09;;;;;;;16.42;10.45;;;15.80;99.90;;;15.87;100.00;100949.75;5115532;28;20285;-74
2023/05/10 07:17:39;;;;;;;12.88;10.32;;;15.70;99.90;;;15.87;100.00;100952.44;5115407;28;20039;-73
2023/05/10 07:20:12;;;;;;;15.93;10.40;;;15.60;99.90;;;15.89;100.00;100949.75;5115394;28;20035;-74
2023/05/10 07:22:40;;;;;;;14.70;10.27;;;15.60;99.90;;;15.95;100.00;100955.78;5115627;28;20126;-74
2023/05/10 07:25:10;;;;;;;14.15;10.23;;;15.70;99.90;;;16.03;100.00;100959.16;5115186;28;20043;-73
2023/05/10 07:27:38;;;;;;;14.02;10.60;;;15.80;99.90;;;15.97;100.00;100963.75;5111411;28;20074;-74
2023/05/10 07:30:08;;;;;;;15.25;9.65;;;15.70;99.90;;;15.88;100.00;100962.22;5115399;28;20388;-74
2023/05/10 07:32:36;;;;;;;13.27;9.77;;;15.70;99.90;;;15.94;100.00;100963.84;5115461;28;20082;-74
2023/05/10 07:35:07;;;;;;;10.60;9.60;;;15.70;99.90;;;16.03;100.00;100956.47;5096915;28;20067;-74
2023/05/10 07:37:35;;;;;;;16.20;10.15;;;15.70;99.90;;;16.06;100.00;100958.22;5115357;28;20047;-73
2023/05/10 07:40:05;;;;;;;12.93;9.88;;;15.80;99.90;;;16.08;100.00;100959.94;5096877;28;20043;-73
2023/05/10 07:42:33;;;;;;;13.50;9.63;;;15.80;99.90;;;15.69;100.00;100896.00;5088833;28;20047;-73
2023/05/10 07:45:01;;;;;;;12.63;9.20;;;15.80;99.90;;;16.09;100.00;100961.66;5114861;28;20512;-75
2023/05/10 07:47:30;;;;;;;12.88;10.10;;;15.80;99.90;;;15.85;100.00;100940.06;5110732;28;20070;-73
2023/05/10 07:49:58;;;;;;;14.75;10.50;;;15.70;99.90;;;16.03;100.00;100969.81;5092992;28;20056;-74
2023/05/10 07:52:28;;;;;;;14.60;10.27;;;15.80;99.90;;;16.15;100.00;100964.19;5114747;28;20128;-73
2023/05/10 07:54:57;;;;;;;14.33;10.00;;;15.80;99.90;;;16.00;100.00;100945.03;5114561;28;20035;-73
2023/05/10 07:57:25;;;;;;;13.75;11.05;;;15.80;99.90;;;16.20;100.00;100969.41;5114644;28;20808;-74
2023/05/10 07:59:53;;;;;;;15.88;11.02;;;15.90;99.90;;;16.05;100.00;100967.09;5114624;28;20381;-74
2023/05/10 08:02:22;;;;;;;12.27;10.80;;;15.80;99.90;;;16.15;100.00;100971.31;5114577;28;20047;-73
2023/05/10 08:04:50;;;;;;;13.00;11.27;;;15.80;99.90;;;16.17;100.00;100967.69;5114782;28;20051;-73
2023/05/10 08:07:18;;;;;;;13.25;10.93;;;15.90;99.90;;;16.28;100.00;100976.28;5113642;28;20040;-74
2023/05/10 08:09:48;;;;;;;12.88;11.32;;;16.00;99.90;;;16.18;100.00;100976.59;5114571;28;20112;-73
2023/05/10 08:12:18;;;;;;;13.50;11.20;;;15.90;99.90;;;16.06;100.00;100984.91;5089118;28;20396;-74
2023/05/10 08:14:46;;;;;;;12.35;11.05;;;15.80;99.90;;;16.18;100.00;100988.13;5114588;28;20522;-74
2023/05/10 08:17:15;;;;;;;11.18;9.98;;;15.90;99.90;;;16.37;100.00;100987.66;5096281;28;20500;-74
2023/05/10 08:19:45;;;;;;;;;;;16.00;99.90;;;16.40;100.00;100982.22;5088627;28;20090;-74
2023/05/10 08:22:14;;;;;;;12.25;10.23;;;16.10;99.90;;;16.42;99.64;100983.06;5096034;28;20757;-73
2023/05/10 08:24:42;;;;;;;13.98;11.00;;;16.20;99.90;;;16.52;99.57;100985.50;5088017;28;20494;-74
2023/05/10 08:27:12;;;;;;;11.00;9.90;;;16.30;99.90;;;16.44;99.71;100990.13;5114480;28;20069;-73
2023/05/10 08:29:40;;;;;;;10.77;9.33;;;16.20;99.90;;;16.48;99.85;100994.50;5114018;28;20051;-74
2023/05/10 08:32:17;;;;;;;10.15;8.68;;;16.20;99.90;;;16.31;99.63;100996.69;5084726;28;20047;-73
2023/05/10 08:34:46;;;;;;;8.95;8.05;;;16.10;99.90;;;16.24;99.28;101003.09;5114384;28;20035;-74
2023/05/10 08:37:14;;;;;;;9.70;8.23;;;15.90;99.90;;;16.04;99.97;100997.41;5113803;28;20127;-73
2023/05/10 08:39:42;;;;;;;9.32;8.43;;;15.80;99.90;;;16.05;100.00;101001.81;5113981;28;20052;-73
2023/05/10 08:42:13;;;;;;;9.02;7.68;;;15.70;99.90;;;16.19;100.00;101007.69;5095813;28;20138;-74
2023/05/10 08:44:43;;;;;;;9.98;8.70;;;15.90;99.90;;;16.08;100.00;101005.31;5113832;28;20048;-74
2023/05/10 08:47:12;;;;;;;10.38;9.27;;;15.80;99.90;;;15.92;100.00;101013.69;5114164;28;20108;-74
2023/05/10 08:49:42;;;;;;;13.93;10.93;;;15.60;99.90;;;15.94;100.00;101022.53;5110263;28;20043;-74
2023/05/10 08:52:14;;;;;;;14.65;11.00;;;15.60;99.90;;;15.82;100.00;101022.81;5113876;28;20069;-74
2023/05/10 08:54:42;;;;;;;12.23;10.57;;;15.50;99.90;;;15.83;100.00;101017.44;5113564;28;20119;-74
2023/05/10 08:57:12;;;;;;;13.80;11.40;;;15.70;99.90;;;15.86;100.00;101035.19;5113634;28;20032;-73
2023/05/10 08:59:41;;;;;;;12.73;11.07;;;15.60;99.90;;;15.82;100.00;101028.16;5113435;28;20122;-73
2023/05/10 09:02:12;;;;;;;14.18;11.82;;;15.70;99.90;;;15.92;100.00;101045.72;5113326;28;20035;-74
2023/05/10 09:04:42;;;;;;;15.52;11.70;;;15.70;99.90;;;15.80;100.00;101032.66;5113302;28;20047;-74
2023/05/10 09:07:12;;;;;;;16.13;11.65;;;15.60;99.90;;;15.61;100.00;101040.19;5109651;28;20110;-74
2023/05/10 09:09:40;;;;;;;12.98;10.13;;;15.40;99.90;;;15.39;100.00;101013.09;5113377;28;20100;-74
2023/05/10 09:12:11;;;;;;;11.00;9.88;;;15.30;99.90;;;15.49;100.00;101020.91;5113235;28;20050;-74
2023/05/10 09:14:41;;;;;;;17.23;11.32;;;15.30;99.90;;;15.68;100.00;101041.81;5113297;28;20059;-74
2023/05/10 09:17:10;;;;;;;13.25;10.77;;;15.30;99.90;;;15.79;100.00;101053.13;5113093;28;20036;-74
2023/05/10 09:19:39;;;;;;;13.63;9.85;;;15.50;99.90;;;15.78;100.00;101054.03;5113287;28;20097;-74
2023/05/10 09:22:08;;;;;;;12.93;10.38;;;15.50;99.90;;;15.88;100.00;101050.25;5113676;28;20043;-73
2023/05/10 09:24:36;;;;;;;13.60;11.43;;;15.60;99.90;;;15.92;98.95;101059.06;5113413;28;20097;-74
2023/05/10 09:27:05;;;;;;;16.35;8.93;;;15.70;99.90;;;15.91;98.37;101054.66;5109168;28;20043;-74
2023/05/10 09:29:43;;;;;;;11.45;10.25;;;15.70;99.90;;;15.98;98.39;101057.13;5113276;28;20047;-73
2023/05/10 09:32:11;;;;;;;14.98;9.68;;;15.80;99.90;;;15.99;98.33;101063.31;5113048;28;20560;-73
2023/05/10 09:34:42;;;;;;;12.60;9.82;;;15.80;99.90;;;15.96;98.32;101058.06;5113044;28;20500;-73
2023/05/10 09:37:10;;;;;;;15.75;10.98;;;15.80;99.90;;;15.95;98.45;101061.66;5113218;28;20077;-74
2023/05/10 09:39:41;;;;;;;15.25;11.30;;;15.70;99.90;;;15.99;98.35;101060.66;5113238;28;20047;-74
2023/05/10 09:42:11;;;;;;;16.58;11.40;;;15.70;99.90;;;15.99;98.61;101072.22;5088344;28;20081;-73
2023/05/10 09:44:43;;;;;;;17.67;12.05;;;15.70;99.90;;;15.96;98.06;101064.28;5113012;28;20039;-74
2023/05/10 09:47:12;;;;;;;16.85;12.57;;;15.80;99.90;;;16.20;98.14;101073.50;5112948;28;20071;-74
2023/05/10 09:49:40;;;;;;;18.23;12.65;;;15.90;99.90;;;16.27;97.70;101076.00;5112842;28;20455;-74
2023/05/10 09:52:09;;;;;;;17.00;12.55;;;16.00;99.90;;;16.19;97.19;101079.75;5113412;28;20040;-74
2023/05/10 09:54:37;;;;;;;15.30;12.07;;;16.00;99.90;;;16.05;97.98;101068.50;5112753;28;20028;-74
2023/05/10 09:57:05;;;;;;;16.63;13.00;;;15.80;99.90;;;15.98;97.10;101061.56;5113062;28;20036;-74
2023/05/10 09:59:35;;;;;;;15.63;11.98;;;15.80;99.90;;;16.13;97.49;101086.13;5113271;28;20046;-73
2023/05/10 10:02:05;;;;;;;13.93;12.40;;;15.90;99.90;;;15.91;97.79;101082.19;5108917;28;20086;-74
2023/05/10 10:04:33;;;;;;;16.85;12.55;;;15.70;99.90;;;15.82;99.84;101085.06;5112966;28;20063;-74
2023/05/10 10:07:04;;;;;;;13.88;12.38;;;15.60;99.90;;;15.79;99.53;101100.25;5112849;28;20138;-75
2023/05/10 10:09:34;;;;;;;14.75;11.35;;;15.50;99.90;;;15.86;99.54;101102.75;5094474;28;20063;-74